Navigator Grace — D5DP9 — position and weather

sailwx.info

Track history (hours):
 
Tides and Currents Weather Stations Pressure Air Temp Water Temp Dewpoint Dewpoint Depression Visibility Wind Speed Wind Dir Waves Ship Positions

Navigator Grace

Last reported at 2018-Aug-12 16:38 UTC. Time now 2018-Aug-16 20:18 UTC.
Position N 31°13' E 029°42'.

Length 153 m; draft 8.2 m.

Type: Ship. MMSI: 636015943.

Date/timePositionNaut miles runAvg speedWind from/ knotsBaromVisibWave heightAir tempDewpointWater temp
2018-Aug-12 16:38N 31°13' E 029°42'0 0.0
2018-Aug-12 16:23N 31°13' E 029°42'0 0.0
2018-Aug-12 15:59N 31°13' E 029°42'  
2018-Aug-09 01:39N 35°41' E 015°29'615.3
2018-Aug-09 01:15N 35°43' E 015°22'415.4
2018-Aug-09 01:00N 35°44' E 015°17'815.4
2018-Aug-09 00:30N 35°47' E 015°09'815.3
2018-Aug-09 00:00N 35°50' E 014°60'10 5.2
2018-Aug-08 22:03N 35°53' E 014°48'0 0.1
2018-Aug-08 22:00N 35°53' E 014°48'0 0.0
2018-Aug-08 20:21N 35°53' E 014°48'0 0.0
2018-Aug-08 20:00N 35°53' E 014°48'0 0.0
2018-Aug-08 19:30N 35°53' E 014°48'62113.1
2018-Aug-06 20:11N 37°08' E 002°00'815.4
2018-Aug-06 19:42N 37°06' E 001°51'315.4
2018-Aug-06 19:30N 37°06' E 001°47'2215.6
2018-Aug-06 18:05N 37°01' E 001°20'115.6
2018-Aug-06 18:00N 37°00' E 001°19'815.6
2018-Aug-06 17:30N 36°59' E 001°09'815.5
2018-Aug-06 17:00N 36°57' E 000°60'815.7
2018-Aug-06 16:30N 36°55' E 000°50'815.7
2018-Aug-06 16:00N 36°53' E 000°41'815.3
2018-Aug-06 15:30N 36°51' E 000°31'815.4
2018-Aug-06 15:00N 36°49' E 000°22'815.3
2018-Aug-06 14:30N 36°47' E 000°13'815.3
2018-Aug-06 14:00N 36°45' E 000°04'815.3
2018-Aug-06 13:30N 36°43' W 000°06'815.3
2018-Aug-06 12:59N 36°43' W 000°16'815.4
2018-Aug-06 12:29N 36°41' W 000°25'915.0
2018-Aug-06 11:54N 36°39' W 000°35'614.9
2018-Aug-06 11:28N 36°38' W 000°43'20616.1
2018-Aug-05 22:44N 36°02' W 004°55'717.8
2018-Aug-05 22:19N 36°02' W 005°04'617.3
2018-Aug-05 21:59N 36°01' W 005°11'817.2
2018-Aug-05 21:31N 35°59' W 005°21'816.0
2018-Aug-05 21:01N 35°57' W 005°30'7214.5
2018-Aug-05 16:03N 36°02' W 006°59'115.0
2018-Aug-05 16:00N 36°02' W 006°60'2015.1
2018-Aug-05 14:39N 36°07' W 007°24'215.2
2018-Aug-05 14:30N 36°08' W 007°27'1515.4
2018-Aug-05 13:31N 36°11' W 007°45'815.2
2018-Aug-05 13:00N 36°13' W 007°55'815.4
2018-Aug-05 12:30N 36°15' W 008°04'815.3
2018-Aug-05 11:59N 36°17' W 008°13'715.4
2018-Aug-05 11:30N 36°18' W 008°22'815.3
2018-Aug-05 11:00N 36°20' W 008°32'815.0
2018-Aug-05 10:30N 36°22' W 008°41'714.8
2018-Aug-05 10:00N 36°24' W 008°50'714.6
2018-Aug-05 09:30N 36°26' W 008°59'714.7
2018-Aug-05 09:00N 36°27' W 009°07'815.1
2018-Aug-05 08:30N 36°29' W 009°16'714.3
2018-Aug-05 08:01N 36°33' W 009°24'714.7
2018-Aug-05 07:31N 36°38' W 009°30'714.9
2018-Aug-05 07:00N 36°44' W 009°37'714.9
2018-Aug-05 06:30N 36°51' W 009°39'815.5
2018-Aug-05 06:01N 36°58' W 009°41'815.4
2018-Aug-05 05:30N 37°06' W 009°44'815.5
2018-Aug-05 05:00N 37°13' W 009°46'815.6
2018-Aug-05 04:31N 37°21' W 009°48'815.3
2018-Aug-05 04:00N 37°28' W 009°51'815.2
2018-Aug-05 03:30N 37°36' W 009°53'815.3
2018-Aug-05 03:00N 37°43' W 009°55'815.5
2018-Aug-05 02:31N 37°51' W 009°57'815.8
2018-Aug-05 02:01N 37°59' W 009°59'815.6
2018-Aug-05 01:30N 38°06' W 010°01'815.4
2018-Aug-05 01:01N 38°14' W 010°03'815.4
2018-Aug-05 00:31N 38°21' W 010°06'815.4
2018-Aug-05 00:01N 38°29' W 010°08'815.3
2018-Aug-04 23:30N 38°36' W 010°10'714.9
2018-Aug-04 23:01N 38°43' W 010°12'815.2
2018-Aug-04 22:31N 38°51' W 010°12'816.2
2018-Aug-04 22:01N 38°59' W 010°12'815.8
2018-Aug-04 21:31N 39°07' W 010°12'815.9
2018-Aug-04 21:00N 39°15' W 010°13'815.7
2018-Aug-04 20:31N 39°23' W 010°13'815.3
2018-Aug-04 20:00N 39°31' W 010°13'815.6
2018-Aug-04 19:31N 39°38' W 010°13'815.6
2018-Aug-04 19:00N 39°46' W 010°13'815.8
2018-Aug-04 18:31N 39°54' W 010°13'815.6
2018-Aug-04 18:01N 40°02' W 010°12'815.8
2018-Aug-04 17:30N 40°10' W 010°12'815.5
2018-Aug-04 16:59N 40°18' W 010°12'815.5
2018-Aug-04 16:29N 40°25' W 010°12'715.5
2018-Aug-04 16:00N 40°33' W 010°12'815.6
2018-Aug-04 15:31N 40°41' W 010°12'815.7
2018-Aug-04 15:00N 40°49' W 010°12'815.7
2018-Aug-04 14:30N 40°56' W 010°12'815.8
2018-Aug-04 14:00N 41°04' W 010°12'1015.7
2018-Aug-04 13:22N 41°14' W 010°12'615.6
2018-Aug-04 13:01N 41°20' W 010°12'815.7
2018-Aug-04 12:30N 41°28' W 010°12'1015.7
2018-Aug-04 11:51N 41°38' W 010°13'515.5
2018-Aug-04 11:30N 41°43' W 010°12'815.3
2018-Aug-04 10:58N 41°51' W 010°12'1315.7
2018-Aug-04 10:10N 42°04' W 010°12'415.5
2018-Aug-04 09:56N 42°08' W 010°12'20715.1
2018-Aug-03 20:14N 45°23' W 008°38'415.7
2018-Aug-03 19:59N 45°26' W 008°35'815.4
2018-Aug-03 19:29N 45°33' W 008°30'915.7
2018-Aug-03 18:55N 45°41' W 008°24'616.1
2018-Aug-03 18:31N 45°47' W 008°19'815.5
2018-Aug-03 18:00N 45°53' W 008°14'815.3
2018-Aug-03 17:30N 46°00' W 008°09'6515.3
2018-Aug-03 13:16N 46°57' W 007°24'415.3
2018-Aug-03 13:00N 47°01' W 007°21'272428.7
2018-Aug-03 12:22N 50°05' W 002°20'256669.6
2018-Aug-03 11:59N 47°15' W 007°10'261541.1
2018-Aug-03 11:30N 50°07' W 002°13'0 0.5
2018-Aug-03 10:53N 50°07' W 002°13'1 1.5
2018-Aug-03 10:29N 50°07' W 002°12'231447.8
2018-Aug-03 09:58N 47°43' W 006°47'815.8
2018-Aug-03 09:28N 47°50' W 006°41'715.9
2018-Aug-03 09:00N 47°56' W 006°36'815.5
2018-Aug-03 08:30N 48°03' W 006°30'714.7
2018-Aug-03 08:00N 48°10' W 006°25'714.8
2018-Aug-03 07:30N 48°16' W 006°20'713.1
2018-Aug-03 07:00N 48°22' W 006°15'612.8
2018-Aug-03 06:30N 48°27' W 006°10'713.0
2018-Aug-03 06:00N 48°33' W 006°06'712.8
2018-Aug-03 05:27N 48°39' W 006°01'613.2
2018-Aug-03 05:00N 48°44' W 005°56'713.5
2018-Aug-03 04:30N 48°50' W 005°51'714.8
2018-Aug-03 04:00N 48°55' W 005°42'1015.6
2018-Aug-03 03:23N 48°60' W 005°29'616.0
2018-Aug-03 03:00N 49°03' W 005°22'815.9
2018-Aug-03 02:30N 49°07' W 005°11'816.2
2018-Aug-03 02:00N 49°11' W 005°01'816.2
2018-Aug-03 01:30N 49°15' W 004°50'816.0
2018-Aug-03 01:00N 49°19' W 004°39'815.5
2018-Aug-03 00:30N 49°23' W 004°29'815.5
2018-Aug-03 00:00N 49°27' W 004°19'714.9
2018-Aug-02 23:30N 49°31' W 004°09'714.6
2018-Aug-02 23:00N 49°35' W 003°59'714.2
2018-Aug-02 22:30N 49°39' W 003°50'713.8
2018-Aug-02 22:00N 49°43' W 003°42'713.7
2018-Aug-02 21:30N 49°47' W 003°33'713.8
2018-Aug-02 21:00N 49°51' W 003°25'713.7
2018-Aug-02 20:30N 49°53' W 003°15'714.4
2018-Aug-02 20:00N 49°56' W 003°05'715.0
2018-Aug-02 19:30N 49°59' W 002°54'815.6
2018-Aug-02 19:00N 50°01' W 002°42'816.3
2018-Aug-02 18:30N 50°03' W 002°30'817.0
2018-Aug-02 18:00N 50°06' W 002°17'917.6
2018-Aug-02 17:30N 50°08' W 002°04'918.0
2018-Aug-02 17:00N 50°11' W 001°50'  
Track history (hours):
 
Tides and Currents Weather Stations Pressure Air Temp Water Temp Dewpoint Dewpoint Depression Visibility Wind Speed Wind Dir Waves Ship Positions

Navigator Grace

Last reported at 2018-Aug-12 16:38 UTC. Time now 2018-Aug-16 20:18 UTC.
Position N 31°13' E 029°42'.

Length 153 m; draft 8.2 m.

Type: Ship. MMSI: 636015943.

Date/timePositionNaut miles runAvg speedWind from/ knotsBaromVisibWave heightAir tempDewpointWater temp
2018-Aug-12 16:38N 31°13' E 029°42'0 0.0
2018-Aug-12 16:23N 31°13' E 029°42'0 0.0
2018-Aug-12 15:59N 31°13' E 029°42'  
2018-Aug-09 01:39N 35°41' E 015°29'615.3
2018-Aug-09 01:15N 35°43' E 015°22'415.4
2018-Aug-09 01:00N 35°44' E 015°17'815.4
2018-Aug-09 00:30N 35°47' E 015°09'815.3
2018-Aug-09 00:00N 35°50' E 014°60'10 5.2
2018-Aug-08 22:03N 35°53' E 014°48'0 0.1
2018-Aug-08 22:00N 35°53' E 014°48'0 0.0
2018-Aug-08 20:21N 35°53' E 014°48'0 0.0
2018-Aug-08 20:00N 35°53' E 014°48'0 0.0
2018-Aug-08 19:30N 35°53' E 014°48'62113.1
2018-Aug-06 20:11N 37°08' E 002°00'815.4
2018-Aug-06 19:42N 37°06' E 001°51'315.4
2018-Aug-06 19:30N 37°06' E 001°47'2215.6
2018-Aug-06 18:05N 37°01' E 001°20'115.6
2018-Aug-06 18:00N 37°00' E 001°19'815.6
2018-Aug-06 17:30N 36°59' E 001°09'815.5
2018-Aug-06 17:00N 36°57' E 000°60'815.7
2018-Aug-06 16:30N 36°55' E 000°50'815.7
2018-Aug-06 16:00N 36°53' E 000°41'815.3
2018-Aug-06 15:30N 36°51' E 000°31'815.4
2018-Aug-06 15:00N 36°49' E 000°22'815.3
2018-Aug-06 14:30N 36°47' E 000°13'815.3
2018-Aug-06 14:00N 36°45' E 000°04'815.3
2018-Aug-06 13:30N 36°43' W 000°06'815.3
2018-Aug-06 12:59N 36°43' W 000°16'815.4
2018-Aug-06 12:29N 36°41' W 000°25'915.0
2018-Aug-06 11:54N 36°39' W 000°35'614.9
2018-Aug-06 11:28N 36°38' W 000°43'20616.1
2018-Aug-05 22:44N 36°02' W 004°55'717.8
2018-Aug-05 22:19N 36°02' W 005°04'617.3
2018-Aug-05 21:59N 36°01' W 005°11'817.2
2018-Aug-05 21:31N 35°59' W 005°21'816.0
2018-Aug-05 21:01N 35°57' W 005°30'7214.5
2018-Aug-05 16:03N 36°02' W 006°59'115.0
2018-Aug-05 16:00N 36°02' W 006°60'2015.1
2018-Aug-05 14:39N 36°07' W 007°24'215.2
2018-Aug-05 14:30N 36°08' W 007°27'1515.4
2018-Aug-05 13:31N 36°11' W 007°45'815.2
2018-Aug-05 13:00N 36°13' W 007°55'815.4
2018-Aug-05 12:30N 36°15' W 008°04'815.3
2018-Aug-05 11:59N 36°17' W 008°13'715.4
2018-Aug-05 11:30N 36°18' W 008°22'815.3
2018-Aug-05 11:00N 36°20' W 008°32'815.0
2018-Aug-05 10:30N 36°22' W 008°41'714.8
2018-Aug-05 10:00N 36°24' W 008°50'714.6
2018-Aug-05 09:30N 36°26' W 008°59'714.7
2018-Aug-05 09:00N 36°27' W 009°07'815.1
2018-Aug-05 08:30N 36°29' W 009°16'714.3
2018-Aug-05 08:01N 36°33' W 009°24'714.7
2018-Aug-05 07:31N 36°38' W 009°30'714.9
2018-Aug-05 07:00N 36°44' W 009°37'714.9
2018-Aug-05 06:30N 36°51' W 009°39'815.5
2018-Aug-05 06:01N 36°58' W 009°41'815.4
2018-Aug-05 05:30N 37°06' W 009°44'815.5
2018-Aug-05 05:00N 37°13' W 009°46'815.6
2018-Aug-05 04:31N 37°21' W 009°48'815.3
2018-Aug-05 04:00N 37°28' W 009°51'815.2
2018-Aug-05 03:30N 37°36' W 009°53'815.3
2018-Aug-05 03:00N 37°43' W 009°55'815.5
2018-Aug-05 02:31N 37°51' W 009°57'815.8
2018-Aug-05 02:01N 37°59' W 009°59'815.6
2018-Aug-05 01:30N 38°06' W 010°01'815.4
2018-Aug-05 01:01N 38°14' W 010°03'815.4
2018-Aug-05 00:31N 38°21' W 010°06'815.4
2018-Aug-05 00:01N 38°29' W 010°08'815.3
2018-Aug-04 23:30N 38°36' W 010°10'714.9
2018-Aug-04 23:01N 38°43' W 010°12'815.2
2018-Aug-04 22:31N 38°51' W 010°12'816.2
2018-Aug-04 22:01N 38°59' W 010°12'815.8
2018-Aug-04 21:31N 39°07' W 010°12'815.9
2018-Aug-04 21:00N 39°15' W 010°13'815.7
2018-Aug-04 20:31N 39°23' W 010°13'815.3
2018-Aug-04 20:00N 39°31' W 010°13'815.6
2018-Aug-04 19:31N 39°38' W 010°13'815.6
2018-Aug-04 19:00N 39°46' W 010°13'815.8
2018-Aug-04 18:31N 39°54' W 010°13'815.6
2018-Aug-04 18:01N 40°02' W 010°12'815.8
2018-Aug-04 17:30N 40°10' W 010°12'815.5
2018-Aug-04 16:59N 40°18' W 010°12'815.5
2018-Aug-04 16:29N 40°25' W 010°12'715.5
2018-Aug-04 16:00N 40°33' W 010°12'815.6
2018-Aug-04 15:31N 40°41' W 010°12'815.7
2018-Aug-04 15:00N 40°49' W 010°12'815.7
2018-Aug-04 14:30N 40°56' W 010°12'815.8
2018-Aug-04 14:00N 41°04' W 010°12'1015.7
2018-Aug-04 13:22N 41°14' W 010°12'615.6
2018-Aug-04 13:01N 41°20' W 010°12'815.7
2018-Aug-04 12:30N 41°28' W 010°12'1015.7
2018-Aug-04 11:51N 41°38' W 010°13'515.5
2018-Aug-04 11:30N 41°43' W 010°12'815.3
2018-Aug-04 10:58N 41°51' W 010°12'1315.7
2018-Aug-04 10:10N 42°04' W 010°12'415.5
2018-Aug-04 09:56N 42°08' W 010°12'20715.1
2018-Aug-03 20:14N 45°23' W 008°38'415.7
2018-Aug-03 19:59N 45°26' W 008°35'815.4
2018-Aug-03 19:29N 45°33' W 008°30'915.7
2018-Aug-03 18:55N 45°41' W 008°24'616.1
2018-Aug-03 18:31N 45°47' W 008°19'815.5
2018-Aug-03 18:00N 45°53' W 008°14'815.3
2018-Aug-03 17:30N 46°00' W 008°09'6515.3
2018-Aug-03 13:16N 46°57' W 007°24'415.3
2018-Aug-03 13:00N 47°01' W 007°21'272428.7
2018-Aug-03 12:22N 50°05' W 002°20'256669.6
2018-Aug-03 11:59N 47°15' W 007°10'261541.1
2018-Aug-03 11:30N 50°07' W 002°13'0 0.5
2018-Aug-03 10:53N 50°07' W 002°13'1 1.5
2018-Aug-03 10:29N 50°07' W 002°12'231447.8
2018-Aug-03 09:58N 47°43' W 006°47'815.8
2018-Aug-03 09:28N 47°50' W 006°41'715.9
2018-Aug-03 09:00N 47°56' W 006°36'815.5
2018-Aug-03 08:30N 48°03' W 006°30'714.7
2018-Aug-03 08:00N 48°10' W 006°25'714.8
2018-Aug-03 07:30N 48°16' W 006°20'713.1
2018-Aug-03 07:00N 48°22' W 006°15'612.8
2018-Aug-03 06:30N 48°27' W 006°10'713.0
2018-Aug-03 06:00N 48°33' W 006°06'712.8
2018-Aug-03 05:27N 48°39' W 006°01'613.2
2018-Aug-03 05:00N 48°44' W 005°56'713.5
2018-Aug-03 04:30N 48°50' W 005°51'714.8
2018-Aug-03 04:00N 48°55' W 005°42'1015.6
2018-Aug-03 03:23N 48°60' W 005°29'616.0
2018-Aug-03 03:00N 49°03' W 005°22'815.9
2018-Aug-03 02:30N 49°07' W 005°11'816.2
2018-Aug-03 02:00N 49°11' W 005°01'816.2
2018-Aug-03 01:30N 49°15' W 004°50'816.0
2018-Aug-03 01:00N 49°19' W 004°39'815.5
2018-Aug-03 00:30N 49°23' W 004°29'815.5
2018-Aug-03 00:00N 49°27' W 004°19'714.9
2018-Aug-02 23:30N 49°31' W 004°09'714.6
2018-Aug-02 23:00N 49°35' W 003°59'714.2
2018-Aug-02 22:30N 49°39' W 003°50'713.8
2018-Aug-02 22:00N 49°43' W 003°42'713.7
2018-Aug-02 21:30N 49°47' W 003°33'713.8
2018-Aug-02 21:00N 49°51' W 003°25'713.7
2018-Aug-02 20:30N 49°53' W 003°15'714.4
2018-Aug-02 20:00N 49°56' W 003°05'715.0
2018-Aug-02 19:30N 49°59' W 002°54'815.6
2018-Aug-02 19:00N 50°01' W 002°42'816.3
2018-Aug-02 18:30N 50°03' W 002°30'817.0
2018-Aug-02 18:00N 50°06' W 002°17'917.6
2018-Aug-02 17:30N 50°08' W 002°04'918.0
2018-Aug-02 17:00N 50°11' W 001°50'  

Dump ship's entire track history